sensor_id;sensor_type;location;lat;lon;timestamp;temperature;humidity
10441;DHT22;5268;49.346;9.522;2024-02-21T04:08:19;7.80;99.90
10441;DHT22;5268;49.346;9.522;2024-02-21T04:13:21;7.70;99.90
10441;DHT22;5268;49.346;9.522;2024-02-21T04:18:23;7.70;99.90
10441;DHT22;5268;49.346;9.522;2024-02-21T04:23:27;7.70;99.90
10441;DHT22;5268;49.346;9.522;2024-02-21T04:28:29;7.70;99.90
10441;DHT22;5268;49.346;9.522;2024-02-21T04:33:31;7.70;99.90
10441;DHT22;5268;49.346;9.522;2024-02-21T04:38:34;7.70;99.90
10441;DHT22;5268;49.346;9.522;2024-02-21T04:43:36;7.70;99.90
10441;DHT22;5268;49.346;9.522;2024-02-21T05:06:25;7.60;99.90
10441;DHT22;5268;49.346;9.522;2024-02-21T05:11:27;7.60;99.90
10441;DHT22;5268;49.346;9.522;2024-02-21T05:16:30;7.60;99.90
10441;DHT22;5268;49.346;9.522;2024-02-21T05:21:36;7.60;99.90
10441;DHT22;5268;49.346;9.522;2024-02-21T05:26:44;7.50;99.90
10441;DHT22;5268;49.346;9.522;2024-02-21T05:32:10;7.50;99.90
10441;DHT22;5268;49.346;9.522;2024-02-21T05:37:19;7.60;99.90
10441;DHT22;5268;49.346;9.522;2024-02-21T05:42:21;7.60;99.90
10441;DHT22;5268;49.346;9.522;2024-02-21T05:47:23;7.60;99.90
10441;DHT22;5268;49.346;9.522;2024-02-21T05:52:46;7.50;99.90
10441;DHT22;5268;49.346;9.522;2024-02-21T05:57:53;7.50;99.90
10441;DHT22;5268;49.346;9.522;2024-02-21T06:02:56;7.60;99.90
10441;DHT22;5268;49.346;9.522;2024-02-21T06:07:59;7.50;99.90
10441;DHT22;5268;49.346;9.522;2024-02-21T06:13:01;7.50;99.90
10441;DHT22;5268;49.346;9.522;2024-02-21T06:18:03;7.40;99.90
10441;DHT22;5268;49.346;9.522;2024-02-21T06:23:07;7.40;99.90
10441;DHT22;5268;49.346;9.522;2024-02-21T06:28:09;7.30;99.90
10441;DHT22;5268;49.346;9.522;2024-02-21T06:33:12;7.30;99.90
10441;DHT22;5268;49.346;9.522;2024-02-21T06:38:15;7.20;99.90
10441;DHT22;5268;49.346;9.522;2024-02-21T06:43:19;7.20;99.90
10441;DHT22;5268;49.346;9.522;2024-02-21T06:48:21;7.10;99.90
10441;DHT22;5268;49.346;9.522;2024-02-21T06:53:25;7.20;99.90
10441;DHT22;5268;49.346;9.522;2024-02-21T06:58:27;7.20;99.90
10441;DHT22;5268;49.346;9.522;2024-02-21T07:03:29;7.30;99.90
10441;DHT22;5268;49.346;9.522;2024-02-21T07:08:32;7.40;99.90
10441;DHT22;5268;49.346;9.522;2024-02-21T07:13:34;7.70;99.90
10441;DHT22;5268;49.346;9.522;2024-02-21T07:18:36;8.30;99.90
10441;DHT22;5268;49.346;9.522;2024-02-21T07:23:42;8.70;99.90
10441;DHT22;5268;49.346;9.522;2024-02-21T07:29:41;9.10;99.90
10441;DHT22;5268;49.346;9.522;2024-02-21T07:34:44;9.30;99.90
10441;DHT22;5268;49.346;9.522;2024-02-21T07:39:47;9.50;99.90
10441;DHT22;5268;49.346;9.522;2024-02-21T07:44:51;10.20;99.90
10441;DHT22;5268;49.346;9.522;2024-02-21T07:50:00;10.70;99.90
10441;DHT22;5268;49.346;9.522;2024-02-21T07:55:05;11.30;99.90
10441;DHT22;5268;49.346;9.522;2024-02-21T08:00:07;11.80;99.90
10441;DHT22;5268;49.346;9.522;2024-02-21T08:05:18;12.40;99.90
10441;DHT22;5268;49.346;9.522;2024-02-21T08:10:21;12.90;99.90
10441;DHT22;5268;49.346;9.522;2024-02-21T08:15:23;13.40;99.90
10441;DHT22;5268;49.346;9.522;2024-02-21T08:20:30;13.90;99.90
10441;DHT22;5268;49.346;9.522;2024-02-21T08:25:33;14.30;99.90
10441;DHT22;5268;49.346;9.522;2024-02-21T08:30:35;14.20;99.90
10441;DHT22;5268;49.346;9.522;2024-02-21T08:35:37;14.20;99.90
10441;DHT22;5268;49.346;9.522;2024-02-21T08:40:40;14.40;99.90
10441;DHT22;5268;49.346;9.522;2024-02-21T08:45:42;13.80;99.90
10441;DHT22;5268;49.346;9.522;2024-02-21T08:50:44;13.80;99.90
10441;DHT22;5268;49.346;9.522;2024-02-21T08:55:48;13.30;99.90
10441;DHT22;5268;49.346;9.522;2024-02-21T09:00:50;12.50;99.90
10441;DHT22;5268;49.346;9.522;2024-02-21T09:05:53;11.60;99.90
10441;DHT22;5268;49.346;9.522;2024-02-21T09:10:56;11.50;99.90
10441;DHT22;5268;49.346;9.522;2024-02-21T09:15:58;11.40;99.90
10441;DHT22;5268;49.346;9.522;2024-02-21T09:21:00;11.10;99.90
10441;DHT22;5268;49.346;9.522;2024-02-21T09:26:04;11.00;99.90
10441;DHT22;5268;49.346;9.522;2024-02-21T09:31:06;10.90;99.90
10441;DHT22;5268;49.346;9.522;2024-02-21T09:36:08;11.00;99.90
10441;DHT22;5268;49.346;9.522;2024-02-21T09:41:15;11.00;99.90
10441;DHT22;5268;49.346;9.522;2024-02-21T09:46:19;11.10;99.90
10441;DHT22;5268;49.346;9.522;2024-02-21T09:51:21;11.10;99.90
10441;DHT22;5268;49.346;9.522;2024-02-21T09:56:25;11.20;99.90
10441;DHT22;5268;49.346;9.522;2024-02-21T10:01:27;11.30;99.90
10441;DHT22;5268;49.346;9.522;2024-02-21T10:06:29;11.50;99.90
10441;DHT22;5268;49.346;9.522;2024-02-21T10:11:32;11.60;99.90
10441;DHT22;5268;49.346;9.522;2024-02-21T10:16:35;11.80;99.90
10441;DHT22;5268;49.346;9.522;2024-02-21T10:21:37;12.00;99.90
10441;DHT22;5268;49.346;9.522;2024-02-21T10:26:41;12.00;99.90
10441;DHT22;5268;49.346;9.522;2024-02-21T10:31:43;12.20;99.90
10441;DHT22;5268;49.346;9.522;2024-02-21T10:36:45;12.30;99.90
10441;DHT22;5268;49.346;9.522;2024-02-21T10:41:48;12.50;99.90
10441;DHT22;5268;49.346;9.522;2024-02-21T10:46:50;12.60;99.90
10441;DHT22;5268;49.346;9.522;2024-02-21T10:51:55;12.70;99.90
10441;DHT22;5268;49.346;9.522;2024-02-21T10:57:03;12.60;99.90
10441;DHT22;5268;49.346;9.522;2024-02-21T11:02:05;12.70;99.90
10441;DHT22;5268;49.346;9.522;2024-02-21T11:07:07;12.20;99.90
10441;DHT22;5268;49.346;9.522;2024-02-21T12:27:54;12.20;99.90
10441;DHT22;5268;49.346;9.522;2024-02-21T12:32:56;12.20;99.90
10441;DHT22;5268;49.346;9.522;2024-02-21T12:38:00;12.30;99.90
10441;DHT22;5268;49.346;9.522;2024-02-21T12:43:03;12.30;99.90
10441;DHT22;5268;49.346;9.522;2024-02-21T12:48:06;12.40;99.90
10441;DHT22;5268;49.346;9.522;2024-02-21T12:53:08;12.50;99.90
10441;DHT22;5268;49.346;9.522;2024-02-21T12:58:11;12.60;99.90
10441;DHT22;5268;49.346;9.522;2024-02-21T13:03:14;12.50;99.90
10441;DHT22;5268;49.346;9.522;2024-02-21T13:08:16;12.40;99.90
10441;DHT22;5268;49.346;9.522;2024-02-21T13:13:23;12.50;99.90
10441;DHT22;5268;49.346;9.522;2024-02-21T13:18:25;12.20;99.90
10441;DHT22;5268;49.346;9.522;2024-02-21T13:23:27;12.30;99.90
10441;DHT22;5268;49.346;9.522;2024-02-21T13:28:30;12.30;99.90
10441;DHT22;5268;49.346;9.522;2024-02-21T13:33:32;12.30;99.90
10441;DHT22;5268;49.346;9.522;2024-02-21T13:38:34;12.40;99.90
10441;DHT22;5268;49.346;9.522;2024-02-21T13:43:37;12.30;99.90
10441;DHT22;5268;49.346;9.522;2024-02-21T13:48:39;12.20;99.90
10441;DHT22;5268;49.346;9.522;2024-02-21T13:53:42;12.00;99.90
10441;DHT22;5268;49.346;9.522;2024-02-21T13:58:45;12.10;99.90
10441;DHT22;5268;49.346;9.522;2024-02-21T14:03:47;12.10;99.90
10441;DHT22;5268;49.346;9.522;2024-02-21T14:08:49;12.10;99.90
10441;DHT22;5268;49.346;9.522;2024-02-21T14:13:53;12.10;99.90
10441;DHT22;5268;49.346;9.522;2024-02-21T14:18:58;12.00;99.90
10441;DHT22;5268;49.346;9.522;2024-02-21T14:23:59;11.80;99.90
10441;DHT22;5268;49.346;9.522;2024-02-21T14:29:05;11.80;99.90
10441;DHT22;5268;49.346;9.522;2024-02-21T14:34:07;11.80;99.90
10441;DHT22;5268;49.346;9.522;2024-02-21T14:39:09;11.70;99.90
10441;DHT22;5268;49.346;9.522;2024-02-21T14:44:13;11.80;99.90
10441;DHT22;5268;49.346;9.522;2024-02-21T14:49:15;11.80;99.90
10441;DHT22;5268;49.346;9.522;2024-02-21T14:54:16;11.60;99.90
10441;DHT22;5268;49.346;9.522;2024-02-21T14:59:21;11.50;99.90
10441;DHT22;5268;49.346;9.522;2024-02-21T15:04:23;11.40;99.90
10441;DHT22;5268;49.346;9.522;2024-02-21T15:09:25;11.50;99.90
10441;DHT22;5268;49.346;9.522;2024-02-21T15:14:29;11.60;99.90
10441;DHT22;5268;49.346;9.522;2024-02-21T15:19:31;11.50;99.90
10441;DHT22;5268;49.346;9.522;2024-02-21T15:24:33;11.40;99.90
10441;DHT22;5268;49.346;9.522;2024-02-21T15:29:37;11.30;99.90
10441;DHT22;5268;49.346;9.522;2024-02-21T15:34:40;11.30;99.90
10441;DHT22;5268;49.346;9.522;2024-02-21T15:39:42;11.40;99.90
10441;DHT22;5268;49.346;9.522;2024-02-21T15:44:46;11.40;99.90
10441;DHT22;5268;49.346;9.522;2024-02-21T15:49:48;11.50;99.90
10441;DHT22;5268;49.346;9.522;2024-02-21T15:54:50;11.50;99.90
10441;DHT22;5268;49.346;9.522;2024-02-21T15:59:54;11.50;99.90
10441;DHT22;5268;49.346;9.522;2024-02-21T16:04:56;11.50;99.90
10441;DHT22;5268;49.346;9.522;2024-02-21T16:09:58;11.50;99.90
10441;DHT22;5268;49.346;9.522;2024-02-21T16:15:03;11.50;99.90
10441;DHT22;5268;49.346;9.522;2024-02-21T16:20:07;11.50;99.90
10441;DHT22;5268;49.346;9.522;2024-02-21T16:25:11;11.60;99.90
10441;DHT22;5268;49.346;9.522;2024-02-21T16:30:14;11.60;99.90
10441;DHT22;5268;49.346;9.522;2024-02-21T16:35:17;11.60;99.90
10441;DHT22;5268;49.346;9.522;2024-02-21T16:40:19;11.50;99.90
10441;DHT22;5268;49.346;9.522;2024-02-21T16:45:23;11.50;99.90
10441;DHT22;5268;49.346;9.522;2024-02-21T16:50:25;11.50;99.90
10441;DHT22;5268;49.346;9.522;2024-02-21T16:55:27;11.40;99.90
10441;DHT22;5268;49.346;9.522;2024-02-21T17:00:30;11.30;99.90
10441;DHT22;5268;49.346;9.522;2024-02-21T17:05:36;11.30;99.90
10441;DHT22;5268;49.346;9.522;2024-02-21T17:10:38;11.20;99.90
10441;DHT22;5268;49.346;9.522;2024-02-21T17:15:42;11.10;99.90
10441;DHT22;5268;49.346;9.522;2024-02-21T17:20:44;11.00;99.90
10441;DHT22;5268;49.346;9.522;2024-02-21T17:25:48;10.90;99.90
10441;DHT22;5268;49.346;9.522;2024-02-21T17:30:52;10.90;99.90
10441;DHT22;5268;49.346;9.522;2024-02-21T17:35:54;10.80;99.90
10441;DHT22;5268;49.346;9.522;2024-02-21T17:40:56;10.70;99.90
10441;DHT22;5268;49.346;9.522;2024-02-21T17:46:01;10.70;99.90
10441;DHT22;5268;49.346;9.522;2024-02-21T17:51:03;10.60;99.90
10441;DHT22;5268;49.346;9.522;2024-02-21T17:56:06;10.50;99.90
10441;DHT22;5268;49.346;9.522;2024-02-21T18:01:09;10.50;99.90
10441;DHT22;5268;49.346;9.522;2024-02-21T18:06:11;10.40;99.90
10441;DHT22;5268;49.346;9.522;2024-02-21T18:11:14;10.40;99.90
10441;DHT22;5268;49.346;9.522;2024-02-21T18:16:18;10.30;99.90
10441;DHT22;5268;49.346;9.522;2024-02-21T18:21:20;10.30;99.90
10441;DHT22;5268;49.346;9.522;2024-02-21T18:26:22;10.30;99.90
10441;DHT22;5268;49.346;9.522;2024-02-21T18:31:25;10.20;99.90
10441;DHT22;5268;49.346;9.522;2024-02-21T18:36:28;10.20;99.90
10441;DHT22;5268;49.346;9.522;2024-02-21T18:41:30;10.10;99.90
10441;DHT22;5268;49.346;9.522;2024-02-21T18:46:34;10.10;99.90
10441;DHT22;5268;49.346;9.522;2024-02-21T18:51:36;10.10;99.90
10441;DHT22;5268;49.346;9.522;2024-02-21T18:56:38;10.00;99.90
10441;DHT22;5268;49.346;9.522;2024-02-21T19:01:43;10.00;99.90
10441;DHT22;5268;49.346;9.522;2024-02-21T19:06:47;10.00;99.90
10441;DHT22;5268;49.346;9.522;2024-02-21T19:11:52;9.90;99.90
10441;DHT22;5268;49.346;9.522;2024-02-21T19:16:56;9.90;99.90
10441;DHT22;5268;49.346;9.522;2024-02-21T19:21:58;9.90;99.90
10441;DHT22;5268;49.346;9.522;2024-02-21T19:27:00;9.90;99.90
10441;DHT22;5268;49.346;9.522;2024-02-21T19:32:05;9.80;99.90
10441;DHT22;5268;49.346;9.522;2024-02-21T19:37:08;9.80;99.90
10441;DHT22;5268;49.346;9.522;2024-02-21T19:42:10;9.80;99.90
10441;DHT22;5268;49.346;9.522;2024-02-21T19:47:15;9.80;99.90
10441;DHT22;5268;49.346;9.522;2024-02-21T19:52:17;9.80;99.90
10441;DHT22;5268;49.346;9.522;2024-02-21T19:57:23;9.70;99.90
10441;DHT22;5268;49.346;9.522;2024-02-21T20:02:26;9.70;99.90
10441;DHT22;5268;49.346;9.522;2024-02-21T20:07:29;9.70;99.90
10441;DHT22;5268;49.346;9.522;2024-02-21T20:12:32;9.60;99.90
10441;DHT22;5268;49.346;9.522;2024-02-21T20:17:36;9.50;99.90
10441;DHT22;5268;49.346;9.522;2024-02-21T20:22:42;9.50;99.90
10441;DHT22;5268;49.346;9.522;2024-02-21T20:27:44;9.50;99.90
10441;DHT22;5268;49.346;9.522;2024-02-21T20:32:48;9.50;99.90
10441;DHT22;5268;49.346;9.522;2024-02-21T20:37:52;9.50;99.90
10441;DHT22;5268;49.346;9.522;2024-02-21T20:42:55;9.50;99.90
10441;DHT22;5268;49.346;9.522;2024-02-21T20:48:00;9.40;99.90
10441;DHT22;5268;49.346;9.522;2024-02-21T20:53:02;9.50;99.90
10441;DHT22;5268;49.346;9.522;2024-02-21T20:58:04;9.40;99.90
10441;DHT22;5268;49.346;9.522;2024-02-21T21:03:07;9.40;99.90
10441;DHT22;5268;49.346;9.522;2024-02-21T21:08:10;9.40;99.90
10441;DHT22;5268;49.346;9.522;2024-02-21T21:13:13;9.40;99.90
10441;DHT22;5268;49.346;9.522;2024-02-21T21:18:17;9.40;99.90
10441;DHT22;5268;49.346;9.522;2024-02-21T21:23:19;9.50;99.90
10441;DHT22;5268;49.346;9.522;2024-02-21T21:28:21;9.50;99.90
10441;DHT22;5268;49.346;9.522;2024-02-21T21:33:26;9.60;99.90
10441;DHT22;5268;49.346;9.522;2024-02-21T21:38:29;9.60;99.90
10441;DHT22;5268;49.346;9.522;2024-02-21T21:43:31;9.70;99.90
10441;DHT22;5268;49.346;9.522;2024-02-21T21:48:35;9.70;99.90
10441;DHT22;5268;49.346;9.522;2024-02-21T21:53:37;9.80;99.90
10441;DHT22;5268;49.346;9.522;2024-02-21T21:58:40;9.80;99.90
10441;DHT22;5268;49.346;9.522;2024-02-21T22:03:43;9.90;99.90
10441;DHT22;5268;49.346;9.522;2024-02-21T22:08:45;10.00;99.90
10441;DHT22;5268;49.346;9.522;2024-02-21T22:13:48;10.10;99.90
10441;DHT22;5268;49.346;9.522;2024-02-21T22:18:51;10.40;99.90
10441;DHT22;5268;49.346;9.522;2024-02-21T22:23:53;10.50;99.90
10441;DHT22;5268;49.346;9.522;2024-02-21T22:28:55;10.60;99.90
10441;DHT22;5268;49.346;9.522;2024-02-21T22:34:00;10.80;99.90
10441;DHT22;5268;49.346;9.522;2024-02-21T22:39:02;10.80;99.90
10441;DHT22;5268;49.346;9.522;2024-02-21T22:44:05;10.90;99.90
10441;DHT22;5268;49.346;9.522;2024-02-21T22:49:09;10.90;99.90
10441;DHT22;5268;49.346;9.522;2024-02-21T22:54:11;10.80;99.90
